Time;durP1;ratioP1;P1;durP2;ratioP2;P2;SDS_P1;SDS_P2;PMS_P1;PMS_P2;Temp;Humidity;BMP_temperature;BMP_pressure;BME280_temperature;BME280_humidity;BME280_pressure;Samples;Min_cycle;Max_cycle;Signal;HPM_P1;HPM_P2
2022/04/24 00:00:42;;;;;;;8.63;3.90;;;9.20;99.90;;;;;;5086505;28;20047;-79
2022/04/24 00:03:08;;;;;;;6.55;4.57;;;9.20;99.90;;;;;;5038296;28;20036;-79
2022/04/24 00:05:34;;;;;;;6.82;4.05;;;9.20;99.90;;;;;;5086200;28;20051;-79
2022/04/24 00:08:00;;;;;;;7.45;4.63;;;9.10;99.90;;;;;;5086922;28;20048;-79
2022/04/24 00:10:26;;;;;;;6.05;4.20;;;9.10;99.90;;;;;;5087364;28;20044;-79
2022/04/24 00:12:52;;;;;;;7.88;4.88;;;9.10;99.90;;;;;;5086149;28;20085;-79
2022/04/24 00:15:17;;;;;;;6.35;4.38;;;9.10;99.90;;;;;;5070601;28;20145;-80
2022/04/24 00:17:43;;;;;;;7.07;4.32;;;9.10;99.90;;;;;;5087336;28;20131;-79
2022/04/24 00:20:10;;;;;;;5.85;4.40;;;9.10;99.90;;;;;;5089093;28;20105;-79
2022/04/24 00:22:36;;;;;;;6.10;4.05;;;9.00;99.90;;;;;;5086115;28;20044;-79
2022/04/24 00:25:02;;;;;;;6.20;4.53;;;9.00;99.90;;;;;;5088466;28;20055;-79
2022/04/24 00:27:27;;;;;;;8.10;4.35;;;9.00;99.90;;;;;;5087999;28;20055;-79
2022/04/24 00:29:53;;;;;;;5.68;4.05;;;9.80;99.90;;;;;;5087242;28;20098;-79
2022/04/24 00:32:19;;;;;;;10.73;4.22;;;8.90;99.90;;;;;;5086882;28;20055;-79
2022/04/24 00:34:44;;;;;;;6.80;4.03;;;8.80;99.90;;;;;;5086800;28;20028;-79
2022/04/24 00:37:10;;;;;;;6.63;5.05;;;8.80;99.90;;;;;;5087352;28;20040;-79
2022/04/24 00:39:36;;;;;;;9.63;5.03;;;8.70;99.90;;;;;;5085973;28;20055;-79
2022/04/24 00:42:01;;;;;;;7.65;4.85;;;8.70;99.90;;;;;;5070139;28;20086;-79
2022/04/24 00:44:28;;;;;;;7.15;4.28;;;8.60;99.90;;;;;;5086071;28;20255;-79
2022/04/24 00:47:13;;;;;;;6.07;4.78;;;8.60;99.90;;;;;;5052414;28;20048;-79
2022/04/24 00:49:41;;;;;;;8.85;4.72;;;8.60;99.90;;;;;;5070293;28;20197;-79
2022/04/24 00:52:07;;;;;;;6.43;4.68;;;8.50;99.90;;;;;;5085303;28;20048;-79
2022/04/24 00:54:33;;;;;;;9.43;4.88;;;8.50;99.90;;;;;;5087027;28;20123;-80
2022/04/24 00:56:59;;;;;;;6.93;5.10;;;8.50;99.90;;;;;;5069398;28;20130;-79
2022/04/24 00:59:25;;;;;;;6.82;4.15;;;8.80;99.90;;;;;;5085444;28;20499;-79
2022/04/24 01:01:51;;;;;;;6.07;4.65;;;8.40;99.90;;;;;;5085684;28;20044;-79
2022/04/24 01:04:18;;;;;;;6.38;5.07;;;8.90;99.90;;;;;;5085248;28;20596;-79
2022/04/24 01:06:44;;;;;;;7.63;5.75;;;8.40;99.90;;;;;;5086181;28;20047;-79
2022/04/24 01:09:11;;;;;;;8.80;5.15;;;8.30;99.90;;;;;;5085095;28;20044;-79
2022/04/24 01:11:37;;;;;;;6.38;4.68;;;8.30;99.90;;;;;;5069961;28;20058;-79
2022/04/24 01:14:03;;;;;;;11.43;4.35;;;8.30;99.90;;;;;;5089794;28;20040;-80
2022/04/24 01:16:29;;;;;;;7.55;4.97;;;8.30;99.90;;;;;;5088083;28;20545;-80
2022/04/24 01:18:56;;;;;;;6.40;4.68;;;8.30;99.90;;;;;;5087612;28;20044;-79
2022/04/24 01:21:21;;;;;;;9.55;5.22;;;8.20;99.90;;;;;;5085122;28;20479;-79
2022/04/24 01:23:47;;;;;;;9.10;5.35;;;8.60;99.90;;;;;;5069754;28;20054;-79
2022/04/24 01:26:12;;;;;;;7.57;5.28;;;9.00;99.90;;;;;;5084928;28;20048;-79
2022/04/24 01:28:38;;;;;;;6.82;4.57;;;8.10;99.90;;;;;;5088099;28;20032;-79
2022/04/24 01:31:05;;;;;;;10.80;5.05;;;8.10;99.90;;;;;;5086944;28;20047;-79
2022/04/24 01:33:31;;;;;;;7.80;5.35;;;8.90;99.90;;;;;;5068587;28;20056;-79
2022/04/24 01:35:57;;;;;;;9.93;5.32;;;8.00;99.90;;;;;;5086843;28;20380;-79
2022/04/24 01:38:23;;;;;;;7.78;5.50;;;8.30;99.90;;;;;;5084830;28;20054;-79
2022/04/24 01:40:49;;;;;;;6.25;4.75;;;7.90;99.90;;;;;;5086964;28;20476;-79
2022/04/24 01:43:16;;;;;;;7.32;4.70;;;7.80;99.90;;;;;;5095817;28;20126;-79
2022/04/24 01:45:43;;;;;;;9.88;4.97;;;7.80;99.90;;;;;;5107346;28;20050;-79
2022/04/24 01:48:09;;;;;;;7.50;5.47;;;7.70;99.90;;;;;;5106902;28;20485;-79
2022/04/24 01:50:35;;;;;;;7.40;5.15;;;7.70;99.90;;;;;;5088281;28;20082;-79
2022/04/24 01:53:00;;;;;;;9.18;5.55;;;7.60;99.90;;;;;;5088710;28;20131;-79
2022/04/24 01:55:27;;;;;;;10.45;5.20;;;8.80;99.90;;;;;;5087651;28;20045;-79
2022/04/24 01:57:53;;;;;;;8.25;5.50;;;8.10;99.90;;;;;;5088701;28;20086;-79
2022/04/24 02:00:19;;;;;;;8.43;5.85;;;7.60;99.90;;;;;;5087471;28;20046;-79
2022/04/24 02:02:46;;;;;;;8.00;5.63;;;7.50;99.90;;;;;;5071960;28;20040;-79
2022/04/24 02:05:12;;;;;;;9.38;5.63;;;7.70;99.90;;;;;;5088272;28;20059;-79
2022/04/24 02:07:38;;;;;;;8.32;5.50;;;7.50;99.90;;;;;;5087844;28;20092;-79
2022/04/24 02:10:04;;;;;;;9.30;5.97;;;7.40;99.90;;;;;;5088620;28;20047;-79
2022/04/24 02:12:30;;;;;;;10.95;6.00;;;7.40;99.90;;;;;;5086970;28;20036;-79
2022/04/24 02:14:56;;;;;;;9.82;6.15;;;7.40;99.90;;;;;;5106428;28;20444;-79
2022/04/24 02:17:23;;;;;;;7.32;5.03;;;7.40;99.90;;;;;;5087080;28;20036;-79
2022/04/24 02:19:49;;;;;;;8.60;5.80;;;7.40;99.90;;;;;;5107045;28;20046;-79
2022/04/24 02:22:14;;;;;;;9.43;5.28;;;7.40;99.90;;;;;;5087385;28;20043;-78
2022/04/24 02:24:40;;;;;;;8.63;5.40;;;7.40;99.90;;;;;;5070977;28;20047;-78
2022/04/24 02:27:06;;;;;;;10.30;5.72;;;7.40;99.90;;;;;;5106469;28;20051;-79
2022/04/24 02:29:33;;;;;;;6.93;5.18;;;7.40;99.90;;;;;;5070347;28;20497;-78
2022/04/24 02:31:59;;;;;;;9.85;6.40;;;7.40;99.90;;;;;;5071279;28;20040;-78
2022/04/24 02:34:26;;;;;;;7.90;5.93;;;7.40;99.90;;;;;;5087303;28;20047;-78
2022/04/24 02:36:52;;;;;;;12.70;5.97;;;7.40;99.90;;;;;;5106597;28;20087;-79
2022/04/24 02:39:19;;;;;;;7.60;5.43;;;7.30;99.90;;;;;;5105820;28;20458;-78
2022/04/24 02:41:44;;;;;;;10.35;5.47;;;8.30;99.90;;;;;;5071156;28;20046;-78
2022/04/24 02:44:10;;;;;;;12.00;5.55;;;7.30;99.90;;;;;;5105771;28;20055;-78
2022/04/24 02:46:36;;;;;;;8.05;5.32;;;8.30;99.90;;;;;;5086948;28;20097;-79
2022/04/24 02:49:02;;;;;;;12.30;5.95;;;7.30;99.90;;;;;;5087857;28;20546;-78
2022/04/24 02:51:28;;;;;;;8.38;5.90;;;7.30;99.90;;;;;;5088335;28;20160;-78
2022/04/24 02:53:54;;;;;;;12.95;5.30;;;7.30;99.90;;;;;;5107059;28;20036;-78
2022/04/24 02:56:20;;;;;;;11.43;5.90;;;7.30;99.90;;;;;;5087166;28;20059;-79
2022/04/24 02:58:46;;;;;;;10.80;5.68;;;7.30;99.90;;;;;;5088050;28;20052;-79
2022/04/24 03:01:12;;;;;;;10.90;5.57;;;7.30;99.90;;;;;;5087355;28;20131;-79
2022/04/24 03:03:38;;;;;;;9.05;5.30;;;7.40;99.90;;;;;;5105248;28;20042;-79
2022/04/24 03:06:04;;;;;;;8.77;5.25;;;7.30;99.90;;;;;;5071089;28;20098;-79
2022/04/24 03:08:30;;;;;;;7.68;4.88;;;8.50;99.90;;;;;;5069617;28;20494;-79
2022/04/24 03:10:56;;;;;;;8.60;5.28;;;7.30;99.90;;;;;;5088203;28;20046;-79
2022/04/24 03:13:21;;;;;;;7.85;5.40;;;7.30;99.90;;;;;;5105538;28;20130;-79
2022/04/24 03:15:47;;;;;;;9.52;5.10;;;7.30;99.90;;;;;;5106340;28;20122;-79
2022/04/24 03:18:13;;;;;;;6.95;5.28;;;7.30;99.90;;;;;;5087503;28;20571;-79
2022/04/24 03:20:38;;;;;;;8.70;5.10;;;7.30;99.90;;;;;;5104908;28;20505;-79
2022/04/24 03:23:04;;;;;;;8.73;5.47;;;7.30;99.90;;;;;;5087466;28;20039;-78
2022/04/24 03:25:30;;;;;;;7.60;5.05;;;7.30;99.90;;;;;;5090572;28;20047;-78
2022/04/24 03:27:56;;;;;;;8.18;4.93;;;7.30;99.90;;;;;;5092190;28;20497;-79
2022/04/24 03:30:22;;;;;;;10.25;5.25;;;8.80;99.90;;;;;;5090635;28;20559;-79
2022/04/24 03:32:48;;;;;;;6.93;4.55;;;7.50;99.90;;;;;;5091579;28;20078;-79
2022/04/24 03:35:14;;;;;;;5.90;4.55;;;7.20;99.90;;;;;;5109652;28;20520;-78
2022/04/24 03:37:41;;;;;;;6.63;4.97;;;7.30;99.90;;;;;;5108923;28;20039;-79
2022/04/24 03:40:08;;;;;;;9.88;5.70;;;7.30;99.90;;;;;;5091047;28;20048;-79
2022/04/24 03:42:35;;;;;;;6.82;5.00;;;7.20;99.90;;;;;;5088799;28;20105;-78
2022/04/24 03:45:01;;;;;;;7.18;5.15;;;7.20;99.90;;;;;;5074704;28;20051;-79
2022/04/24 03:47:27;;;;;;;6.47;4.65;;;7.20;99.90;;;;;;5073326;28;20039;-79
2022/04/24 03:49:54;;;;;;;7.40;5.32;;;7.20;99.90;;;;;;5091152;28;20040;-79
2022/04/24 03:52:20;;;;;;;7.90;4.68;;;7.20;99.90;;;;;;5090716;28;20079;-79
2022/04/24 03:54:46;;;;;;;10.20;4.78;;;7.20;99.90;;;;;;5090032;28;20094;-78
2022/04/24 03:57:12;;;;;;;7.72;4.75;;;7.10;99.90;;;;;;5109523;28;20036;-78
2022/04/24 03:59:38;;;;;;;8.43;5.13;;;7.20;99.90;;;;;;5089469;28;20082;-79
2022/04/24 04:02:03;;;;;;;9.50;5.90;;;7.10;99.90;;;;;;5074824;28;20082;-79
2022/04/24 04:04:29;;;;;;;8.32;5.32;;;7.10;99.90;;;;;;5108843;28;20124;-79
2022/04/24 04:06:55;;;;;;;7.03;4.95;;;7.10;99.90;;;;;;5108711;28;20047;-79
2022/04/24 04:09:21;;;;;;;8.82;4.85;;;7.10;99.90;;;;;;5090247;28;20074;-79
2022/04/24 04:11:47;;;;;;;9.35;5.15;;;7.80;99.90;;;;;;5072924;28;20040;-79
2022/04/24 04:14:12;;;;;;;8.30;5.35;;;7.00;99.90;;;;;;5090290;28;20044;-79
2022/04/24 04:16:38;;;;;;;7.35;5.47;;;7.60;99.90;;;;;;5088921;28;20078;-79
2022/04/24 04:19:03;;;;;;;7.88;5.18;;;7.00;99.90;;;;;;5091094;28;20040;-79
2022/04/24 04:21:30;;;;;;;8.98;5.32;;;7.00;99.90;;;;;;5089051;28;20062;-79
2022/04/24 04:23:56;;;;;;;16.00;5.63;;;6.90;99.90;;;;;;5108509;28;20039;-79
2022/04/24 04:26:21;;;;;;;9.20;5.30;;;6.90;99.90;;;;;;5108249;28;20506;-79
2022/04/24 04:28:47;;;;;;;9.90;5.03;;;7.10;99.90;;;;;;5089312;28;20487;-79
2022/04/24 04:31:13;;;;;;;8.57;5.18;;;6.90;99.90;;;;;;5108576;28;20077;-79
2022/04/24 04:33:39;;;;;;;8.65;6.00;;;6.90;99.90;;;;;;5107934;28;20090;-79
2022/04/24 04:36:05;;;;;;;10.88;5.57;;;6.90;99.90;;;;;;5108528;28;20090;-79
2022/04/24 04:38:31;;;;;;;10.05;5.65;;;6.90;99.90;;;;;;5107864;28;20039;-78
2022/04/24 04:40:56;;;;;;;9.43;5.53;;;7.90;99.90;;;;;;5090425;28;20046;-79
2022/04/24 04:43:25;;;;;;;8.75;5.25;;;7.00;99.90;;;;;;5107662;28;20066;-79
2022/04/24 04:45:51;;;;;;;7.72;5.68;;;7.00;99.90;;;;;;5107248;28;20533;-78
2022/04/24 04:48:17;;;;;;;13.52;6.10;;;7.00;99.90;;;;;;5090004;28;20051;-79
2022/04/24 04:50:42;;;;;;;9.32;5.47;;;7.60;99.90;;;;;;5107542;28;20036;-79
2022/04/24 04:53:08;;;;;;;14.07;5.50;;;8.00;99.90;;;;;;5108655;28;20043;-78
2022/04/24 04:55:34;;;;;;;10.60;5.72;;;7.10;99.90;;;;;;5088685;28;20047;-79
2022/04/24 04:57:59;;;;;;;8.32;5.53;;;7.20;99.90;;;;;;5090173;28;20040;-79
2022/04/24 05:00:25;;;;;;;10.48;6.03;;;8.60;99.90;;;;;;5072561;28;20100;-78
2022/04/24 05:02:51;;;;;;;9.57;6.10;;;8.10;99.90;;;;;;5071998;28;20592;-79
2022/04/24 05:05:16;;;;;;;9.88;6.18;;;7.20;99.90;;;;;;5107840;28;20042;-79
2022/04/24 05:07:42;;;;;;;10.27;5.97;;;8.60;99.90;;;;;;5088282;28;20043;-79
2022/04/24 05:10:09;;;;;;;9.80;5.93;;;7.20;99.90;;;;;;5073034;28;20403;-79
2022/04/24 05:12:35;;;;;;;9.88;6.15;;;7.20;99.90;;;;;;5089165;28;20039;-79
2022/04/24 05:15:06;;;;;;;9.63;6.55;;;7.30;99.90;;;;;;5108403;28;20675;-79
2022/04/24 05:17:34;;;;;;;9.43;6.00;;;7.30;99.90;;;;;;5107485;28;20510;-79
2022/04/24 05:20:00;;;;;;;14.32;6.38;;;7.30;99.90;;;;;;5107291;28;20062;-79
2022/04/24 05:22:26;;;;;;;9.95;6.15;;;8.30;99.90;;;;;;5107446;28;20058;-79
2022/04/24 05:24:52;;;;;;;9.60;5.68;;;8.80;99.90;;;;;;5106271;28;20047;-79
2022/04/24 05:27:19;;;;;;;9.45;6.10;;;7.60;99.90;;;;;;5107712;28;20558;-79
2022/04/24 05:29:46;;;;;;;8.48;6.20;;;7.40;99.90;;;;;;5088635;28;20046;-78
2022/04/24 05:32:12;;;;;;;7.97;5.38;;;7.40;99.90;;;;;;5089328;28;20048;-79
2022/04/24 05:34:39;;;;;;;11.30;6.25;;;7.50;99.90;;;;;;5089004;28;20635;-79
2022/04/24 05:37:05;;;;;;;8.88;6.20;;;8.30;99.90;;;;;;5106501;28;20059;-79
2022/04/24 05:39:31;;;;;;;10.00;5.82;;;7.60;99.90;;;;;;5107198;28;20053;-77
2022/04/24 05:41:57;;;;;;;9.02;6.30;;;8.90;99.90;;;;;;5105613;28;20085;-78
2022/04/24 05:44:22;;;;;;;10.32;5.82;;;7.70;99.90;;;;;;5106868;28;20086;-79
2022/04/24 05:46:48;;;;;;;10.18;5.57;;;8.40;99.90;;;;;;5105342;28;20114;-78
2022/04/24 05:49:14;;;;;;;10.30;5.78;;;7.80;99.90;;;;;;5072172;28;20513;-78
2022/04/24 05:51:40;;;;;;;9.10;5.55;;;7.90;99.90;;;;;;5089123;28;20067;-77
2022/04/24 05:54:06;;;;;;;9.65;5.97;;;8.00;99.90;;;;;;5106949;28;20067;-78
2022/04/24 05:56:31;;;;;;;9.05;5.45;;;8.20;99.90;;;;;;5088497;28;20539;-80
2022/04/24 05:58:57;;;;;;;11.95;6.47;;;8.30;99.90;;;;;;5086934;28;20112;-80
2022/04/24 06:01:22;;;;;;;7.05;4.35;;;8.40;99.90;;;;;;5088209;28;20074;-81
2022/04/24 06:03:48;;;;;;;9.82;5.28;;;8.50;99.90;;;;;;5087436;28;20039;-80
2022/04/24 06:06:14;;;;;;;8.73;5.13;;;8.60;99.90;;;;;;5088977;28;20047;-79
2022/04/24 06:08:40;;;;;;;8.07;4.75;;;8.70;99.90;;;;;;5088860;28;20176;-80
2022/04/24 06:11:06;;;;;;;8.27;4.78;;;8.80;99.90;;;;;;5088579;28;20089;-81
2022/04/24 06:13:32;;;;;;;8.73;4.93;;;8.90;99.90;;;;;;5109463;28;20402;-80
2022/04/24 06:15:57;;;;;;;9.18;4.88;;;9.30;99.90;;;;;;5106859;28;20602;-79
2022/04/24 06:18:32;;;;;;;9.45;4.03;;;9.00;99.90;;;;;;5088746;28;20047;-79
2022/04/24 06:20:58;;;;;;;6.57;3.85;;;9.10;99.90;;;;;;5087582;28;20473;-81
2022/04/24 06:23:28;;;;;;;7.40;3.80;;;9.20;99.90;;;;;;5106936;28;20127;-79
2022/04/24 06:25:55;;;;;;;11.10;3.42;;;10.30;99.90;;;;;;5071565;28;20071;-79
2022/04/24 06:28:21;;;;;;;5.13;3.17;;;9.40;99.90;;;;;;5088025;28;20052;-79
2022/04/24 06:30:47;;;;;;;5.65;3.22;;;9.50;99.90;;;;;;5088708;28;20051;-80
2022/04/24 06:33:14;;;;;;;6.07;3.33;;;9.50;99.90;;;;;;5086808;28;20040;-79
2022/04/24 06:35:40;;;;;;;4.70;3.20;;;9.60;99.90;;;;;;5107433;28;20465;-79
2022/04/24 06:38:06;;;;;;;7.25;3.03;;;9.70;99.90;;;;;;5070290;28;20143;-80
2022/04/24 06:40:31;;;;;;;5.68;2.30;;;10.80;99.90;;;;;;5088376;28;20043;-78
2022/04/24 06:43:04;;;;;;;5.97;2.20;;;10.10;99.90;;;;;;5087407;28;20437;-79
2022/04/24 06:45:40;;;;;;;3.25;1.58;;;10.00;99.90;;;;;;5070780;28;20052;-81
2022/04/24 06:48:11;;;;;;;5.72;2.08;;;10.00;99.90;;;;;;5088422;28;20055;-82
2022/04/24 06:50:42;;;;;;;3.85;1.58;;;10.10;99.90;;;;;;5088323;28;20057;-82
2022/04/24 06:53:08;;;;;;;5.10;1.95;;;10.20;99.90;;;;;;5088444;28;20041;-82
2022/04/24 06:55:40;;;;;;;4.25;2.08;;;10.30;99.90;;;;;;5087771;28;20040;-83
2022/04/24 06:58:08;;;;;;;4.05;1.73;;;10.40;99.90;;;;;;5071970;28;20368;-82
2022/04/24 07:00:39;;;;;;;3.58;2.30;;;10.50;99.90;;;;;;5091223;28;20088;-82
2022/04/24 07:03:21;;;;;;;5.32;1.60;;;10.60;99.90;;;;;;5090209;28;20486;-80
2022/04/24 07:05:49;;;;;;;9.38;5.18;;;10.70;99.90;;;;;;5110170;28;20142;-82
2022/04/24 07:08:15;;;;;;;7.60;2.00;;;10.90;99.90;;;;;;5108953;28;20051;-82
2022/04/24 07:10:41;;;;;;;3.47;1.70;;;11.70;99.90;;;;;;5108726;28;20047;-81
2022/04/24 07:13:06;;;;;;;6.47;1.98;;;12.10;99.90;;;;;;5091284;28;20047;-82
2022/04/24 07:15:39;;;;;;;6.75;2.20;;;11.20;99.90;;;;;;5109023;28;20036;-83
2022/04/24 07:18:05;;;;;;;2.33;1.30;;;11.30;99.90;;;;;;5092306;28;20140;-82
2022/04/24 07:20:31;;;;;;;2.78;1.67;;;11.40;99.90;;;;;;5109084;28;20039;-82
2022/04/24 07:23:00;;;;;;;2.30;1.40;;;12.60;99.90;;;;;;5091265;28;20124;-81
2022/04/24 07:25:27;;;;;;;1.95;1.30;;;11.90;99.90;;;;;;5109141;28;20501;-80
2022/04/24 07:27:54;;;;;;;2.85;1.27;;;12.10;99.90;;;;;;5092452;28;20105;-80
2022/04/24 07:30:21;;;;;;;4.38;1.50;;;11.70;99.90;;;;;;5111024;28;20083;-79
2022/04/24 07:32:54;;;;;;;2.75;2.10;;;11.80;99.90;;;;;;5110517;28;20578;-79
2022/04/24 07:35:29;;;;;;;3.80;1.45;;;11.90;99.90;;;;;;5112017;28;20051;-79
2022/04/24 07:37:56;;;;;;;5.28;1.80;;;12.60;99.90;;;;;;5092868;28;20087;-79
2022/04/24 07:40:23;;;;;;;3.03;1.30;;;12.10;99.90;;;;;;5111651;28;20043;-80
2022/04/24 07:42:51;;;;;;;2.97;1.63;;;12.20;99.90;;;;;;5090575;28;20036;-79
2022/04/24 07:45:18;;;;;;;5.63;1.70;;;12.30;99.90;;;;;;5056327;28;20395;-80
2022/04/24 07:47:47;;;;;;;3.45;1.77;;;12.40;99.90;;;;;;5091143;28;20059;-84
2022/04/24 07:50:14;;;;;;;2.38;1.70;;;12.50;99.90;;;;;;5088660;28;20047;-80
2022/04/24 07:52:40;;;;;;;3.72;1.52;;;12.50;99.90;;;;;;5091303;28;20377;-80
2022/04/24 07:55:06;;;;;;;2.83;1.92;;;12.60;99.90;;;;;;5090086;28;20047;-82
2022/04/24 07:57:31;;;;;;;3.03;1.35;;;12.70;99.90;;;;;;5090563;28;20043;-82
2022/04/24 07:59:58;;;;;;;6.40;2.00;;;12.80;99.90;;;;;;5090916;28;20051;-82
2022/04/24 08:02:24;;;;;;;3.55;1.70;;;13.00;99.90;;;;;;5089429;28;20406;-81
2022/04/24 08:04:49;;;;;;;5.43;1.75;;;13.10;99.90;;;;;;5089214;28;20047;-81
2022/04/24 08:07:17;;;;;;;6.93;2.33;;;13.20;99.90;;;;;;5089660;28;20119;-85
2022/04/24 08:09:43;;;;;;;4.50;2.10;;;13.50;99.90;;;;;;5089577;28;20044;-78
2022/04/24 08:12:09;;;;;;;4.63;2.13;;;13.40;99.90;;;;;;5089004;28;20189;-77
2022/04/24 08:14:34;;;;;;;8.55;1.95;;;13.50;99.90;;;;;;5089396;28;20151;-77
2022/04/24 08:17:00;;;;;;;3.38;1.95;;;13.70;99.90;;;;;;5087726;28;20648;-77
2022/04/24 08:19:26;;;;;;;3.25;1.55;;;14.70;99.70;;;;;;5054281;28;20055;-79
2022/04/24 08:21:52;;;;;;;3.83;1.60;;;14.50;97.60;;;;;;5071044;28;20040;-77
2022/04/24 08:24:17;;;;;;;5.38;2.78;;;14.80;95.20;;;;;;5088804;28;20075;-77
2022/04/24 08:26:43;;;;;;;2.28;1.42;;;15.10;93.30;;;;;;5088860;28;20040;-77
2022/04/24 08:29:09;;;;;;;10.98;6.32;;;15.30;92.40;;;;;;5087971;28;20119;-77
2022/04/24 08:31:34;;;;;;;3.47;1.83;;;15.60;91.80;;;;;;5090743;28;20079;-77
2022/04/24 08:34:00;;;;;;;2.78;1.63;;;15.60;89.80;;;;;;5088150;28;20429;-77
2022/04/24 08:36:26;;;;;;;4.50;1.60;;;15.60;90.10;;;;;;5071129;28;20398;-78
2022/04/24 08:38:51;;;;;;;7.78;2.42;;;15.80;90.10;;;;;;5087761;28;20533;-76
2022/04/24 08:41:21;;;;;;;2.85;1.55;;;15.80;88.90;;;;;;5087316;28;20048;-76
2022/04/24 08:43:47;;;;;;;2.22;1.30;;;15.80;87.20;;;;;;5087995;28;20052;-77
2022/04/24 08:46:14;;;;;;;7.10;2.40;;;16.00;87.30;;;;;;5088295;28;20040;-79
2022/04/24 08:48:45;;;;;;;4.93;2.03;;;15.90;86.10;;;;;;5072259;28;20209;-78
2022/04/24 08:51:11;;;;;;;3.70;1.73;;;16.00;81.80;;;;;;5089306;28;20070;-82
2022/04/24 08:53:39;;;;;;;2.63;1.50;;;15.90;81.60;;;;;;5054988;28;20047;-82
2022/04/24 08:56:05;;;;;;;4.35;2.03;;;16.50;83.50;;;;;;5073287;28;20040;-82
2022/04/24 08:58:32;;;;;;;2.67;1.42;;;15.80;83.80;;;;;;5089042;28;20063;-82
2022/04/24 09:00:58;;;;;;;4.20;2.28;;;15.70;85.10;;;;;;5091459;28;20079;-82
2022/04/24 09:03:24;;;;;;;4.80;2.00;;;15.60;84.60;;;;;;5088578;28;20044;-82
2022/04/24 09:05:49;;;;;;;3.13;2.00;;;15.60;85.30;;;;;;5090933;28;20040;-81
2022/04/24 09:08:15;;;;;;;3.33;2.20;;;15.70;84.90;;;;;;5072085;28;20048;-81
2022/04/24 09:10:55;;;;;;;3.25;1.75;;;16.00;84.00;;;;;;5089356;28;20059;-81
2022/04/24 09:13:26;;;;;;;3.35;2.05;;;15.60;77.00;;;;;;5090770;28;20040;-82
2022/04/24 09:16:00;;;;;;;2.97;1.80;;;15.50;83.90;;;;;;5088253;28;20036;-81
2022/04/24 09:18:42;;;;;;;1.85;1.35;;;15.50;81.70;;;;;;5087800;28;20569;-81
2022/04/24 09:21:11;;;;;;;4.22;2.22;;;15.40;79.80;;;;;;5086539;28;20471;-81
2022/04/24 09:23:37;;;;;;;4.25;1.98;;;16.00;74.60;;;;;;5096871;28;20066;-81
2022/04/24 09:26:04;;;;;;;3.30;1.80;;;15.40;82.50;;;;;;5095708;28;20048;-81
2022/04/24 09:28:37;;;;;;;2.58;1.42;;;15.40;81.60;;;;;;5088795;28;20509;-81
2022/04/24 09:31:04;;;;;;;2.42;1.67;;;15.50;77.60;;;;;;5091177;28;20056;-81
2022/04/24 09:33:42;;;;;;;3.35;1.35;;;15.60;78.10;;;;;;5086473;28;20040;-81
2022/04/24 09:36:09;;;;;;;2.50;1.15;;;15.60;75.20;;;;;;5085283;28;20071;-81
2022/04/24 09:38:45;;;;;;;3.45;1.60;;;15.70;78.50;;;;;;5085903;28;20043;-81
2022/04/24 09:41:19;;;;;;;2.55;1.42;;;15.80;72.70;;;;;;5084137;28;20055;-81
2022/04/24 09:43:51;;;;;;;2.40;1.20;;;15.80;72.60;;;;;;5145776;27;20820;-81
2022/04/24 09:46:30;;;;;;;2.50;1.00;;;16.00;73.30;;;;;;5129000;27;20478;-82
2022/04/24 09:49:00;;;;;;;2.53;1.02;;;16.10;69.40;;;;;;5144522;27;20047;-81
2022/04/24 09:51:26;;;;;;;2.28;1.08;;;16.20;71.20;;;;;;5145481;27;20047;-81
2022/04/24 09:53:55;;;;;;;3.83;1.27;;;16.20;70.20;;;;;;5127064;28;20156;-81
2022/04/24 09:56:24;;;;;;;4.25;1.17;;;16.10;70.40;;;;;;5128242;28;20446;-81
2022/04/24 09:58:50;;;;;;;4.38;1.42;;;16.10;69.70;;;;;;5128904;27;20066;-82
2022/04/24 10:01:17;;;;;;;2.47;1.40;;;16.10;69.70;;;;;;5144695;27;20541;-81
2022/04/24 10:03:43;;;;;;;3.58;1.58;;;16.20;69.80;;;;;;5129144;27;20089;-81
2022/04/24 10:06:10;;;;;;;2.22;1.20;;;16.30;69.90;;;;;;5126983;28;20071;-81
2022/04/24 10:08:37;;;;;;;2.28;1.05;;;16.50;69.20;;;;;;5127901;28;20039;-82
2022/04/24 10:11:05;;;;;;;3.75;1.70;;;16.70;69.30;;;;;;5128040;27;20118;-82
2022/04/24 10:13:35;;;;;;;4.05;1.70;;;16.90;69.40;;;;;;5130245;27;20497;-82
2022/04/24 10:16:55;;;;;;;3.83;1.40;;;17.00;68.50;;;;;;5128495;28;20088;-82
2022/04/24 10:19:50;;;;;;;6.38;1.77;;;17.10;64.80;;;;;;5090737;28;20066;-81
2022/04/24 10:22:33;;;;;;;3.85;1.52;;;17.10;67.10;;;;;;5106165;28;20130;-82
2022/04/24 10:25:01;;;;;;;2.60;1.67;;;17.20;68.00;;;;;;5106775;28;20048;-81
2022/04/24 10:27:41;;;;;;;2.00;1.35;;;17.40;67.80;;;;;;5087568;28;20040;-81
2022/04/24 10:30:11;;;;;;;2.75;1.48;;;17.40;63.60;;;;;;5106773;28;20054;-81
2022/04/24 10:32:37;;;;;;;4.55;1.33;;;17.30;64.60;;;;;;5106058;28;20048;-81
2022/04/24 10:35:17;;;;;;;2.13;1.60;;;17.30;64.40;;;;;;5104842;28;20124;-81
2022/04/24 10:37:44;;;;;;;2.42;0.90;;;17.40;63.30;;;;;;5089080;28;20040;-81
2022/04/24 10:40:15;;;;;;;1.95;1.35;;;17.40;62.70;;;;;;5104277;28;20040;-81
2022/04/24 10:42:43;;;;;;;3.55;1.48;;;17.40;60.70;;;;;;5105795;28;20095;-82
2022/04/24 10:45:16;;;;;;;3.28;1.38;;;17.40;61.50;;;;;;5103890;28;20498;-81
2022/04/24 10:47:53;;;;;;;4.40;1.40;;;17.40;60.70;;;;;;5103579;28;20123;-81
2022/04/24 10:50:20;;;;;;;3.25;1.67;;;17.40;59.50;;;;;;5104643;28;20601;-81
2022/04/24 10:52:48;;;;;;;3.95;1.40;;;17.40;62.00;;;;;;5102426;28;20530;-81
2022/04/24 10:55:19;;;;;;;2.80;1.30;;;17.40;63.20;;;;;;5090522;28;20087;-82
2022/04/24 10:57:54;;;;;;;9.95;1.85;;;17.40;62.90;;;;;;5071927;28;20056;-81
2022/04/24 11:00:25;;;;;;;2.47;1.10;;;17.50;61.60;;;;;;5092092;28;20040;-81
2022/04/24 11:02:52;;;;;;;2.95;1.65;;;17.30;61.70;;;;;;5097130;28;20056;-82
2022/04/24 11:05:22;;;;;;;6.63;1.73;;;17.10;61.90;;;;;;5106328;28;20091;-82
2022/04/24 11:07:48;;;;;;;3.65;1.67;;;17.00;62.60;;;;;;5099304;28;20047;-81
2022/04/24 11:10:20;;;;;;;3.92;1.35;;;17.10;63.30;;;;;;5074573;28;20051;-81
2022/04/24 11:12:48;;;;;;;4.50;1.60;;;17.10;62.20;;;;;;5092233;28;20039;-82
2022/04/24 11:15:14;;;;;;;4.45;2.03;;;17.20;62.60;;;;;;5090055;28;20132;-82
2022/04/24 11:17:41;;;;;;;6.82;1.90;;;17.10;63.10;;;;;;5090367;28;20040;-82
2022/04/24 11:20:09;;;;;;;7.88;1.63;;;17.20;63.60;;;;;;5088840;28;20519;-81
2022/04/24 11:22:45;;;;;;;2.65;1.90;;;17.30;62.40;;;;;;5088456;28;20089;-82
2022/04/24 11:25:16;;;;;;;5.60;1.90;;;17.40;61.10;;;;;;5091252;28;20130;-82
2022/04/24 11:27:49;;;;;;;3.13;1.83;;;17.30;62.10;;;;;;5105784;28;20070;-81
2022/04/24 11:30:16;;;;;;;5.00;2.45;;;17.30;62.00;;;;;;5090744;28;20127;-82
2022/04/24 11:32:57;;;;;;;5.43;2.17;;;17.30;62.90;;;;;;5088728;28;20089;-82
2022/04/24 11:35:24;;;;;;;5.70;2.03;;;17.20;63.40;;;;;;5090072;28;20051;-81
2022/04/24 11:37:51;;;;;;;4.60;1.98;;;17.20;63.90;;;;;;5106375;28;20048;-82
2022/04/24 11:40:17;;;;;;;3.45;2.40;;;17.20;63.70;;;;;;5071452;28;20051;-82
2022/04/24 11:42:43;;;;;;;2.30;1.95;;;17.20;63.90;;;;;;5089075;28;20060;-81
2022/04/24 11:50:51;;;;;;;4.97;2.78;;;17.20;64.40;;;;;;5091646;28;20457;-81
2022/04/24 11:53:20;;;;;;;8.05;2.40;;;17.30;62.70;;;;;;5089567;28;20394;-82
2022/04/24 11:56:04;;;;;;;6.20;2.28;;;17.40;63.30;;;;;;5088735;28;20036;-81
2022/04/24 11:58:41;;;;;;;4.57;2.45;;;17.50;63.20;;;;;;5089358;28;20538;-81
2022/04/24 12:01:08;;;;;;;4.75;1.90;;;17.50;62.40;;;;;;5087855;28;20055;-81
2022/04/24 12:03:37;;;;;;;4.82;2.53;;;17.50;63.20;;;;;;5071723;28;20131;-81
2022/04/24 12:06:06;;;;;;;7.97;2.55;;;17.60;61.90;;;;;;5103053;28;20044;-82
2022/04/24 12:09:08;;;;;;;5.63;2.33;;;17.70;63.00;;;;;;5088902;28;20117;-81
2022/04/24 12:11:35;;;;;;;3.85;2.45;;;17.90;61.40;;;;;;5087398;28;20152;-81
2022/04/24 12:14:10;;;;;;;7.30;2.10;;;17.90;62.80;;;;;;5087405;28;20491;-81
2022/04/24 12:16:38;;;;;;;3.55;2.20;;;18.00;62.40;;;;;;5105340;28;20042;-81
2022/04/24 12:19:04;;;;;;;6.57;2.20;;;18.10;61.80;;;;;;5088421;28;20138;-81
2022/04/24 12:21:32;;;;;;;5.47;2.30;;;18.10;60.50;;;;;;5090287;28;20115;-80
2022/04/24 12:23:59;;;;;;;4.45;2.03;;;18.20;61.00;;;;;;5087370;28;20138;-77
2022/04/24 12:26:25;;;;;;;5.25;2.40;;;17.60;61.90;;;;;;5089045;28;20418;-78
2022/04/24 12:28:51;;;;;;;2.75;1.85;;;17.50;62.10;;;;;;5087738;28;20044;-78
2022/04/24 12:31:20;;;;;;;4.05;2.15;;;17.40;62.60;;;;;;5104269;28;20082;-78
2022/04/24 12:33:54;;;;;;;4.65;2.08;;;17.40;63.60;;;;;;5105000;28;20050;-77
2022/04/24 12:36:20;;;;;;;5.85;2.17;;;17.60;63.90;;;;;;5104770;28;20563;-78
2022/04/24 12:39:12;;;;;;;2.78;1.80;;;17.80;64.10;;;;;;5105112;28;20052;-77
2022/04/24 12:41:39;;;;;;;6.43;2.25;;;18.10;63.70;;;;;;5085885;28;20101;-78
2022/04/24 12:44:07;;;;;;;5.80;2.20;;;18.10;63.70;;;;;;5105343;28;20376;-76
2022/04/24 12:46:35;;;;;;;3.50;1.73;;;18.20;63.70;;;;;;5107783;28;20119;-78
2022/04/24 12:49:03;;;;;;;4.30;2.58;;;18.20;62.60;;;;;;5077794;28;20044;-76
2022/04/24 12:51:29;;;;;;;5.70;2.00;;;18.10;62.60;;;;;;5106898;28;20126;-77
2022/04/24 12:53:57;;;;;;;3.80;1.90;;;17.80;62.70;;;;;;5103568;28;20040;-79
2022/04/24 12:56:24;;;;;;;7.43;2.50;;;17.50;63.30;;;;;;5070033;28;20086;-77
2022/04/24 12:58:50;;;;;;;4.70;1.70;;;17.40;64.10;;;;;;5070254;28;20051;-76